Time;durP1;ratioP1;P1;durP2;ratioP2;P2;SDS_P1;SDS_P2;PMS_P1;PMS_P2;Temp;Humidity;BMP_temperature;BMP_pressure;BME280_temperature;BME280_humidity;BME280_pressure;Samples;Min_cycle;Max_cycle;Signal;HPM_P1;HPM_P2
2021/09/08 00:00:37;;;;;;;;;;;;;;;14.01;80.25;101792.13;2090952;28;20382;-68
2021/09/08 00:01:37;;;;;;;;;;;;;;;14.00;80.84;101793.06;2093696;28;19909;-68
2021/09/08 00:02:38;;;;;;;;;;;;;;;14.00;80.50;101786.00;2091117;28;20003;-67
2021/09/08 00:03:38;;;;;;;;;;;;;;;13.99;80.22;101783.47;2090938;28;19948;-68
2021/09/08 00:04:38;;;;;;;;;;;;;;;13.99;80.46;101788.72;2090985;28;20421;-70
2021/09/08 00:05:38;;;;;;;;;;;;;;;13.99;80.43;101786.09;2091005;28;19952;-67
2021/09/08 00:06:39;;;;;;;;;;;;;;;13.98;80.41;101781.75;2082003;28;19976;-67
2021/09/08 00:07:39;;;;;;;;;;;;;;;13.96;80.31;101789.69;2082195;28;19918;-67
2021/09/08 00:08:39;;;;;;;;;;;;;;;13.95;80.32;101788.00;2090848;28;20258;-68
2021/09/08 00:09:39;;;;;;;;;;;;;;;13.95;80.05;101776.63;2090736;28;19919;-67
2021/09/08 00:10:39;;;;;;;;;;;;;;;13.95;80.07;101780.13;2090903;28;20322;-67
2021/09/08 00:11:39;;;;;;;;;;;;;;;13.92;80.13;101780.25;2081944;28;19919;-68
2021/09/08 00:12:40;;;;;;;;;;;;;;;13.92;80.33;101782.88;2082039;28;19919;-68
2021/09/08 00:13:40;;;;;;;;;;;;;;;13.89;80.15;101781.22;2081936;28;20378;-68
2021/09/08 00:14:40;;;;;;;;;;;;;;;13.89;80.04;101783.00;2073843;28;19960;-68
2021/09/08 00:15:40;;;;;;;;;;;;;;;13.88;80.67;101787.41;2081956;28;19932;-68
2021/09/08 00:16:41;;;;;;;;;;;;;;;13.87;81.03;101785.69;2090732;28;19915;-68
2021/09/08 00:17:41;;;;;;;;;;;;;;;13.85;80.99;101777.03;2090777;28;19916;-68
2021/09/08 00:18:41;;;;;;;;;;;;;;;13.84;80.76;101775.31;2090824;28;20439;-68
2021/09/08 00:19:41;;;;;;;;;;;;;;;13.82;81.06;101777.16;2090215;28;19916;-67
2021/09/08 00:20:41;;;;;;;;;;;;;;;13.80;81.29;101779.00;2090292;28;20425;-68
2021/09/08 00:21:42;;;;;;;;;;;;;;;13.79;81.41;101772.00;2090814;28;20292;-68
2021/09/08 00:22:43;;;;;;;;;;;;;;;13.77;81.55;101773.88;2090738;28;20294;-67
2021/09/08 00:23:43;;;;;;;;;;;;;;;13.75;81.81;101773.06;2093687;28;19908;-67
2021/09/08 00:24:43;;;;;;;;;;;;;;;13.75;81.76;101775.69;2090778;28;19948;-67
2021/09/08 00:25:43;;;;;;;;;;;;;;;13.74;81.66;101774.00;2090746;28;19909;-67
2021/09/08 00:26:43;;;;;;;;;;;;;;;13.75;81.84;101778.31;2081873;28;19915;-68
2021/09/08 00:27:44;;;;;;;;;;;;;;;13.75;81.66;101778.31;2082010;28;19909;-67
2021/09/08 00:28:44;;;;;;;;;;;;;;;13.74;81.85;101769.59;2090579;28;19909;-67
2021/09/08 00:29:44;;;;;;;;;;;;;;;13.75;81.48;101770.44;2090789;28;20300;-68
2021/09/08 00:30:44;;;;;;;;;;;;;;;13.76;81.22;101773.00;2090113;28;19916;-67
2021/09/08 00:31:44;;;;;;;;;;;;;;;13.75;81.93;101765.19;2090169;28;19912;-67
2021/09/08 00:32:45;;;;;;;;;;;;;;;13.73;82.06;101769.66;2090712;28;20377;-67
2021/09/08 00:33:45;;;;;;;;;;;;;;;13.72;81.71;101767.97;2090703;28;19909;-67
2021/09/08 00:34:45;;;;;;;;;;;;;;;13.71;81.83;101758.38;2090821;28;19913;-67
2021/09/08 00:35:45;;;;;;;;;;;;;;;13.71;82.67;101758.38;2090681;28;19912;-68
2021/09/08 00:36:45;;;;;;;;;;;;;;;13.70;82.32;101756.66;2081822;28;19909;-68
2021/09/08 00:37:45;;;;;;;;;;;;;;;13.70;82.89;101761.91;2081976;28;19909;-67
2021/09/08 00:38:46;;;;;;;;;;;;;;;13.68;83.48;101758.53;2090625;28;19909;-67
2021/09/08 00:39:46;;;;;;;;;;;;;;;13.67;83.41;101764.66;2090753;28;19908;-67
2021/09/08 00:40:46;;;;;;;;;;;;;;;13.64;83.26;101756.00;2090821;28;19956;-67
2021/09/08 00:41:47;;;;;;;;;;;;;;;13.62;83.54;101757.84;2090725;28;19908;-68
2021/09/08 00:42:47;;;;;;;;;;;;;;;13.61;83.38;101750.88;2090678;28;19908;-68
2021/09/08 00:43:47;;;;;;;;;;;;;;;13.60;83.53;101753.56;2090720;28;19908;-68
2021/09/08 00:44:47;;;;;;;;;;;;;;;13.60;83.69;101751.81;2090708;28;19943;-68
2021/09/08 00:45:51;;;;;;;;;;;;;;;13.58;83.83;101756.25;2081688;28;20444;-68
2021/09/08 00:46:51;;;;;;;;;;;;;;;13.57;83.94;101751.94;2085077;28;20306;-68
2021/09/08 00:47:52;;;;;;;;;;;;;;;13.57;83.72;101751.06;2090637;28;19955;-67
2021/09/08 00:48:52;;;;;;;;;;;;;;;13.57;83.06;101751.06;2090632;28;19912;-68
2021/09/08 00:49:52;;;;;;;;;;;;;;;13.56;83.15;101750.22;2090798;28;19917;-68
2021/09/08 00:50:52;;;;;;;;;;;;;;;13.57;83.47;101749.31;2081813;28;19962;-67
2021/09/08 00:51:53;;;;;;;;;;;;;;;13.58;84.07;101750.16;2081873;28;19909;-67
2021/09/08 00:52:53;;;;;;;;;;;;;;;13.59;85.39;101751.88;2090717;28;19916;-68
2021/09/08 00:53:55;;;;;;;;;;;;;;;13.57;85.25;101746.69;2090683;28;20370;-67
2021/09/08 00:54:56;;;;;;;;;;;;;;;13.55;84.88;101753.75;2090681;28;20281;-67
2021/09/08 00:55:57;;;;;;;;;;;;;;;13.55;84.61;101753.75;2090582;28;19913;-67
2021/09/08 00:56:58;;;;;;;;;;;;;;;13.54;84.50;101744.19;2090564;28;19959;-67
2021/09/08 00:57:58;;;;;;;;;;;;;;;13.54;83.87;101744.19;2090604;28;19934;-68
2021/09/08 00:58:58;;;;;;;;;;;;;;;13.55;84.07;101748.50;2090695;28;19908;-69
2021/09/08 00:59:58;;;;;;;;;;;;;;;13.55;84.25;101742.44;2089955;28;19909;-67
2021/09/08 01:00:59;;;;;;;;;;;;;;;13.55;83.96;101753.75;2090107;28;19909;-68
2021/09/08 01:02:00;;;;;;;;;;;;;;;13.54;84.32;101743.34;2090715;28;19963;-67
2021/09/08 01:03:00;;;;;;;;;;;;;;;13.52;83.83;101746.03;2090638;28;20010;-68
2021/09/08 01:04:01;;;;;;;;;;;;;;;13.50;84.20;101747.84;2090574;28;19916;-68
2021/09/08 01:05:01;;;;;;;;;;;;;;;13.48;84.14;101745.28;2090815;28;20006;-67
2021/09/08 01:06:01;;;;;;;;;;;;;;;13.46;83.78;101738.38;2090579;28;19913;-68
2021/09/08 01:07:02;;;;;;;;;;;;;;;13.44;84.06;101740.22;2090547;28;19912;-68
2021/09/08 01:08:03;;;;;;;;;;;;;;;13.44;83.88;101735.81;2090622;28;19913;-67
2021/09/08 01:09:04;;;;;;;;;;;;;;;13.41;83.83;101733.28;2090411;28;19951;-67
2021/09/08 01:10:05;;;;;;;;;;;;;;;13.42;84.25;101736.78;2090763;28;20381;-67
2021/09/08 01:11:06;;;;;;;;;;;;;;;13.43;85.58;101741.09;2090561;28;19908;-68
2021/09/08 01:12:06;;;;;;;;;;;;;;;13.43;85.74;101728.00;2090541;28;19909;-67
2021/09/08 01:13:07;;;;;;;;;;;;;;;13.42;85.84;101739.41;2090550;28;19963;-67
2021/09/08 01:14:07;;;;;;;;;;;;;;;13.42;84.74;101736.78;2090580;28;19909;-67
2021/09/08 01:15:07;;;;;;;;;;;;;;;13.42;84.86;101740.28;2090537;28;19908;-67
2021/09/08 01:16:08;;;;;;;;;;;;;;;13.43;84.69;101736.72;2090562;28;19912;-67
2021/09/08 01:17:08;;;;;;;;;;;;;;;13.42;84.53;101737.66;2090449;28;19959;-67
2021/09/08 01:18:08;;;;;;;;;;;;;;;13.41;84.79;101735.09;2090035;28;19909;-68
2021/09/08 01:19:09;;;;;;;;;;;;;;;13.39;85.13;101735.97;2081627;28;19909;-68
2021/09/08 01:20:10;;;;;;;;;;;;;;;13.39;85.47;101732.53;2081755;28;20402;-68
2021/09/08 01:21:10;;;;;;;;;;;;;;;13.39;85.84;101733.34;2090539;28;19912;-67
2021/09/08 01:22:10;;;;;;;;;;;;;;;13.39;86.01;101733.34;2092127;28;20289;-68
2021/09/08 01:23:10;;;;;;;;;;;;;;;13.40;86.02;101731.59;2092185;28;19916;-68
2021/09/08 01:24:11;;;;;;;;;;;;;;;13.42;86.17;101732.41;2092303;28;20277;-68
2021/09/08 01:25:11;;;;;;;;;;;;;;;13.41;86.66;101729.84;2083192;28;19932;-68
2021/09/08 01:26:11;;;;;;;;;;;;;;;13.39;86.76;101722.88;2083261;28;19952;-68
2021/09/08 01:27:11;;;;;;;;;;;;;;;13.38;86.76;101731.66;2094902;28;19966;-67
2021/09/08 01:28:12;;;;;;;;;;;;;;;13.38;86.32;101736.91;2092124;28;20404;-68
2021/09/08 01:29:12;;;;;;;;;;;;;;;13.36;86.77;101728.25;2091985;28;20015;-67
2021/09/08 01:30:19;;;;;;;;;;;;;;;13.37;86.62;101732.56;2092116;28;19909;-68
2021/09/08 01:31:20;;;;;;;;;;;;;;;13.37;86.33;101729.97;2092062;28;19916;-67
2021/09/08 01:32:20;;;;;;;;;;;;;;;13.36;86.39;101730.88;2092092;28;19940;-67
2021/09/08 01:33:20;;;;;;;;;;;;;;;13.37;86.65;101729.97;2083161;28;19909;-68
2021/09/08 01:34:21;;;;;;;;;;;;;;;13.37;86.60;101735.19;2083207;28;19959;-68
2021/09/08 01:35:21;;;;;;;;;;;;;;;13.37;86.68;101740.44;2092076;28;19960;-68
2021/09/08 01:36:21;;;;;;;;;;;;;;;13.37;86.98;101732.56;2092107;28;19966;-67
2021/09/08 01:37:22;;;;;;;;;;;;;;;13.37;86.70;101735.19;2092142;28;19912;-67
2021/09/08 01:38:22;;;;;;;;;;;;;;;13.37;86.49;101734.34;2092040;28;20289;-67
2021/09/08 01:39:24;;;;;;;;;;;;;;;13.36;87.00;101737.88;2092123;28;19913;-67
2021/09/08 01:40:24;;;;;;;;;;;;;;;13.33;86.55;101731.00;2092016;28;19956;-68
2021/09/08 01:41:24;;;;;;;;;;;;;;;13.30;86.82;101743.34;2091984;28;19915;-67
2021/09/08 01:42:25;;;;;;;;;;;;;;;13.29;86.46;101736.41;2092198;28;19908;-68
2021/09/08 01:43:25;;;;;;;;;;;;;;;13.28;86.21;101727.72;2092114;28;20300;-68
2021/09/08 01:44:25;;;;;;;;;;;;;;;13.27;85.96;101739.09;2092017;28;19909;-67
2021/09/08 01:45:25;;;;;;;;;;;;;;;13.26;85.99;101722.53;2091932;28;19967;-68
2021/09/08 01:46:26;;;;;;;;;;;;;;;13.26;85.61;101734.78;2091972;28;20289;-67
2021/09/08 01:47:26;;;;;;;;;;;;;;;13.27;85.50;101731.22;2094776;28;20358;-68
2021/09/08 01:48:26;;;;;;;;;;;;;;;13.27;85.51;101736.47;2091977;28;19958;-68
2021/09/08 01:49:26;;;;;;;;;;;;;;;13.24;85.62;101721.72;2091908;28;19921;-68
2021/09/08 01:50:27;;;;;;;;;;;;;;;13.25;85.45;101725.22;2091954;28;19913;-67
2021/09/08 01:51:27;;;;;;;;;;;;;;;13.24;85.57;101728.75;2091897;28;20388;-67
2021/09/08 01:52:27;;;;;;;;;;;;;;;13.21;84.97;101729.69;2091894;28;19909;-67
2021/09/08 01:53:28;;;;;;;;;;;;;;;13.21;85.09;101728.88;2091969;28;20288;-68
2021/09/08 01:54:28;;;;;;;;;;;;;;;13.20;85.02;101721.91;2091924;28;19915;-68
2021/09/08 01:55:28;;;;;;;;;;;;;;;13.19;84.81;101717.56;2091859;28;20285;-67
2021/09/08 01:56:28;;;;;;;;;;;;;;;13.18;85.16;101718.50;2091907;28;19908;-68
2021/09/08 01:57:29;;;;;;;;;;;;;;;13.17;85.33;101722.03;2082931;28;19917;-67
2021/09/08 01:58:31;;;;;;;;;;;;;;;13.16;85.15;101720.31;2083012;28;19913;-68
2021/09/08 01:59:31;;;;;;;;;;;;;;;13.13;85.34;101716.91;2091934;28;20000;-68
2021/09/08 02:00:31;;;;;;;;;;;;;;;13.12;85.73;101723.09;2091903;28;20293;-67
2021/09/08 02:01:31;;;;;;;;;;;;;;;13.09;85.37;101719.72;2082951;28;19955;-68
2021/09/08 02:02:31;;;;;;;;;;;;;;;13.07;85.87;101717.16;2083175;28;19951;-68
2021/09/08 02:03:32;;;;;;;;;;;;;;;13.05;85.77;101713.75;2091884;28;19991;-68
2021/09/08 02:04:32;;;;;;;;;;;;;;;13.06;85.53;101720.69;2091922;28;19919;-67
2021/09/08 02:05:32;;;;;;;;;;;;;;;13.06;85.04;101715.44;2092007;28;19912;-68
2021/09/08 02:06:32;;;;;;;;;;;;;;;13.06;85.25;101718.06;2091924;28;20316;-67
2021/09/08 02:07:32;;;;;;;;;;;;;;;13.06;84.83;101717.19;2092021;28;19909;-67
2021/09/08 02:08:33;;;;;;;;;;;;;;;13.07;85.07;101711.06;2091928;28;19958;-68
2021/09/08 02:09:33;;;;;;;;;;;;;;;13.04;84.61;101722.53;2091885;28;19959;-67
2021/09/08 02:10:34;;;;;;;;;;;;;;;13.05;84.46;101719.00;2091930;28;19916;-67
2021/09/08 02:11:34;;;;;;;;;;;;;;;13.04;84.43;101717.28;2082816;28;19913;-68
2021/09/08 02:12:34;;;;;;;;;;;;;;;13.04;84.74;101716.41;2082828;28;19916;-67
2021/09/08 02:13:34;;;;;;;;;;;;;;;13.04;84.92;101714.66;2091001;28;19984;-67
2021/09/08 02:14:34;;;;;;;;;;;;;;;13.03;85.11;101720.81;2082983;28;19909;-68
2021/09/08 02:15:35;;;;;;;;;;;;;;;13.03;84.99;101714.72;2091716;28;19923;-67
2021/09/08 02:16:35;;;;;;;;;;;;;;;13.01;85.07;101712.16;2091788;28;20356;-68
2021/09/08 02:17:35;;;;;;;;;;;;;;;12.99;84.82;101708.72;2082741;28;19956;-67
2021/09/08 02:18:36;;;;;;;;;;;;;;;12.97;85.08;101705.34;2082906;28;19952;-70
2021/09/08 02:19:36;;;;;;;;;;;;;;;12.94;85.06;101710.69;2091667;28;19913;-67
2021/09/08 02:20:36;;;;;;;;;;;;;;;12.94;85.14;101705.44;2082841;28;19920;-67
2021/09/08 02:21:36;;;;;;;;;;;;;;;12.93;85.36;101704.59;2082701;28;19915;-68
2021/09/08 02:22:36;;;;;;;;;;;;;;;12.93;85.20;101703.75;2091106;28;19995;-68
2021/09/08 02:23:36;;;;;;;;;;;;;;;12.90;85.63;101693.38;2091749;28;19916;-68
2021/09/08 02:24:37;;;;;;;;;;;;;;;12.90;85.30;101696.84;2090981;28;19953;-67
2021/09/08 02:25:37;;;;;;;;;;;;;;;12.89;85.45;101695.13;2091033;28;19912;-67
2021/09/08 02:26:37;;;;;;;;;;;;;;;12.87;85.63;101692.56;2091809;28;19916;-68
2021/09/08 02:27:37;;;;;;;;;;;;;;;12.88;85.83;101693.44;2091766;28;19916;-67
2021/09/08 02:28:38;;;;;;;;;;;;;;;12.90;86.41;101698.63;2082784;28;20386;-67
2021/09/08 02:29:38;;;;;;;;;;;;;;;12.88;87.45;101693.44;2082746;28;19920;-68
2021/09/08 02:30:38;;;;;;;;;;;;;;;12.88;87.44;101693.44;2091644;28;19943;-67
2021/09/08 02:31:38;;;;;;;;;;;;;;;12.88;87.13;101698.69;2091937;28;19950;-68
2021/09/08 02:32:39;;;;;;;;;;;;;;;12.88;87.19;101690.81;2091201;28;20047;-67
2021/09/08 02:33:39;;;;;;;;;;;;;;;12.89;86.63;101697.75;2091058;28;19909;-66
2021/09/08 02:34:39;;;;;;;;;;;;;;;12.90;86.05;101698.63;2091030;28;19919;-67
2021/09/08 02:35:39;;;;;;;;;;;;;;;12.91;86.22;101700.31;2091065;28;19913;-67
2021/09/08 02:36:39;;;;;;;;;;;;;;;12.90;85.57;101693.38;2091652;28;19909;-68
2021/09/08 02:37:40;;;;;;;;;;;;;;;12.89;85.68;101697.75;2091792;28;19980;-67
2021/09/08 02:38:40;;;;;;;;;;;;;;;12.90;85.25;101694.22;2091690;28;19909;-67
2021/09/08 02:39:40;;;;;;;;;;;;;;;12.90;85.50;101703.84;2091812;28;19948;-68
2021/09/08 02:40:40;;;;;;;;;;;;;;;12.88;86.18;101704.78;2091818;28;20282;-67
2021/09/08 02:41:40;;;;;;;;;;;;;;;12.87;85.52;101700.44;2091880;28;19913;-66
2021/09/08 02:42:40;;;;;;;;;;;;;;;12.86;86.08;101698.72;2091696;28;19909;-68
2021/09/08 02:43:41;;;;;;;;;;;;;;;12.83;85.45;101704.09;2091655;28;20011;-67
2021/09/08 02:44:41;;;;;;;;;;;;;;;12.84;85.38;101700.56;2091797;28;20233;-67
2021/09/08 02:45:41;;;;;;;;;;;;;;;12.83;85.62;101698.84;2091600;28;19952;-67
2021/09/08 02:46:42;;;;;;;;;;;;;;;12.82;85.79;101698.91;2091723;28;19913;-68
2021/09/08 02:47:42;;;;;;;;;;;;;;;12.81;85.72;101695.44;2091535;28;19934;-67
2021/09/08 02:48:42;;;;;;;;;;;;;;;12.79;85.38;101692.03;2091610;28;19947;-67
2021/09/08 02:49:43;;;;;;;;;;;;;;;12.80;85.04;101691.09;2091377;28;19916;-68
2021/09/08 02:50:43;;;;;;;;;;;;;;;12.80;85.13;101688.47;2091555;28;19916;-68
2021/09/08 02:51:43;;;;;;;;;;;;;;;12.79;85.22;101686.78;2082750;28;19909;-68
2021/09/08 02:52:43;;;;;;;;;;;;;;;12.78;85.20;101685.09;2082903;28;19918;-67
2021/09/08 02:53:44;;;;;;;;;;;;;;;12.77;85.79;101683.38;2091649;28;19962;-67
2021/09/08 02:54:44;;;;;;;;;;;;;;;12.79;85.50;101689.41;2091497;28;19915;-67
2021/09/08 02:55:44;;;;;;;;;;;;;;;12.79;85.40;101686.78;2082681;28;19944;-67
2021/09/08 02:56:44;;;;;;;;;;;;;;;12.78;85.87;101685.09;2082724;28;19909;-68
2021/09/08 02:57:44;;;;;;;;;;;;;;;12.78;86.04;101685.09;2091347;28;19998;-68
2021/09/08 02:58:45;;;;;;;;;;;;;;;12.78;86.65;101685.09;2091416;28;19908;-68
2021/09/08 02:59:45;;;;;;;;;;;;;;;12.81;87.03;101682.34;2091468;28;19909;-68
2021/09/08 03:00:45;;;;;;;;;;;;;;;12.81;87.50;101681.47;2091425;28;19955;-67
2021/09/08 03:01:46;;;;;;;;;;;;;;;12.82;88.04;101685.81;2091567;28;19909;-67
2021/09/08 03:02:46;;;;;;;;;;;;;;;12.79;88.08;101686.78;2091476;28;19947;-67
2021/09/08 03:03:46;;;;;;;;;;;;;;;12.78;88.60;101685.09;2091613;28;19951;-67
2021/09/08 03:04:46;;;;;;;;;;;;;;;12.77;87.98;101688.63;2091623;28;20269;-67
2021/09/08 03:05:47;;;;;;;;;;;;;;;12.77;88.32;101686.00;2091544;28;19912;-67
2021/09/08 03:06:49;;;;;;;;;;;;;;;12.75;88.49;101683.44;2091628;28;19912;-68
2021/09/08 03:07:49;;;;;;;;;;;;;;;12.76;88.24;101686.88;2091680;28;19958;-67
2021/09/08 03:08:49;;;;;;;;;;;;;;;12.74;88.08;101693.97;2082538;28;20383;-67
2021/09/08 03:09:49;;;;;;;;;;;;;;;12.73;87.89;101685.25;2082533;28;19913;-67
2021/09/08 03:10:49;;;;;;;;;;;;;;;12.73;87.41;101681.78;2091285;28;19908;-68
2021/09/08 03:11:49;;;;;;;;;;;;;;;12.73;87.89;101687.88;2091415;28;19909;-66
2021/09/08 03:12:50;;;;;;;;;;;;;;;12.75;87.28;101690.44;2091448;28;19934;-68
2021/09/08 03:13:50;;;;;;;;;;;;;;;12.74;87.64;101678.25;2091354;28;19954;-67
2021/09/08 03:14:50;;;;;;;;;;;;;;;12.73;87.59;101687.03;2091380;28;19992;-66
2021/09/08 03:15:50;;;;;;;;;;;;;;;12.73;87.22;101681.78;2091612;28;19909;-67
2021/09/08 03:16:50;;;;;;;;;;;;;;;12.73;87.92;101681.78;2091530;28;20325;-67
2021/09/08 03:17:51;;;;;;;;;;;;;;;12.73;87.47;101681.78;2091302;28;19916;-67
2021/09/08 03:18:51;;;;;;;;;;;;;;;12.73;87.55;101681.78;2082703;28;19908;-67
2021/09/08 03:19:51;;;;;;;;;;;;;;;12.72;87.76;101691.41;2082779;28;19917;-67
2021/09/08 03:20:51;;;;;;;;;;;;;;;12.72;87.46;101683.53;2091582;28;19923;-67
2021/09/08 03:21:51;;;;;;;;;;;;;;;12.72;88.33;101685.31;2091333;28;20397;-68
2021/09/08 03:22:51;;;;;;;;;;;;;;;12.71;87.75;101686.22;2091213;28;19965;-67
2021/09/08 03:23:52;;;;;;;;;;;;;;;12.71;88.37;101678.38;2091241;28;20012;-67
2021/09/08 03:24:52;;;;;;;;;;;;;;;12.69;88.26;101680.22;2091326;28;20315;-67
2021/09/08 03:25:52;;;;;;;;;;;;;;;12.68;88.48;101683.72;2091284;28;19954;-67
2021/09/08 03:26:52;;;;;;;;;;;;;;;12.67;88.14;101682.00;2090608;28;19914;-68
2021/09/08 03:27:52;;;;;;;;;;;;;;;12.66;88.15;101682.94;2090745;28;20361;-67
2021/09/08 03:28:52;;;;;;;;;;;;;;;12.64;87.80;101677.75;2082324;28;19951;-67
2021/09/08 03:29:53;;;;;;;;;;;;;;;12.64;88.15;101687.34;2082388;28;19920;-68
2021/09/08 03:30:53;;;;;;;;;;;;;;;12.62;88.02;101680.44;2091231;28;19916;-67
2021/09/08 03:31:53;;;;;;;;;;;;;;;12.61;87.85;101675.25;2091172;28;20034;-67
2021/09/08 03:32:53;;;;;;;;;;;;;;;12.60;87.90;101677.00;2091171;28;19962;-67
2021/09/08 03:33:53;;;;;;;;;;;;;;;12.58;87.55;101668.38;2091234;28;19915;-67
2021/09/08 03:34:53;;;;;;;;;;;;;;;12.59;87.73;101677.91;2091036;28;20365;-67
2021/09/08 03:35:54;;;;;;;;;;;;;;;12.58;87.77;101673.59;2091158;28;19912;-68
2021/09/08 03:36:54;;;;;;;;;;;;;;;12.57;87.41;101674.53;2091275;28;19963;-67
2021/09/08 03:37:54;;;;;;;;;;;;;;;12.56;87.43;101683.25;2091078;28;19915;-68
2021/09/08 03:38:54;;;;;;;;;;;;;;;12.58;87.68;101684.06;2091114;28;19908;-67
2021/09/08 03:39:56;;;;;;;;;;;;;;;12.57;86.96;101681.50;2091174;28;19967;-67
2021/09/08 03:40:56;;;;;;;;;;;;;;;12.57;86.85;101679.75;2091112;28;19908;-68
2021/09/08 03:41:57;;;;;;;;;;;;;;;12.55;87.05;101676.31;2091131;28;19912;-67
2021/09/08 03:42:57;;;;;;;;;;;;;;;12.55;86.95;101675.47;2091190;28;20385;-67
2021/09/08 03:43:57;;;;;;;;;;;;;;;12.52;87.06;101668.56;2090852;28;20362;-67
2021/09/08 03:44:57;;;;;;;;;;;;;;;12.52;86.94;101676.44;2090885;28;19931;-68
2021/09/08 03:45:58;;;;;;;;;;;;;;;12.49;87.09;101671.34;2091110;28;19946;-67
2021/09/08 03:46:58;;;;;;;;;;;;;;;12.51;87.19;101677.34;2082141;28;19916;-68
2021/09/08 03:47:58;;;;;;;;;;;;;;;12.51;86.76;101672.13;2082249;28;19959;-67
2021/09/08 03:48:59;;;;;;;;;;;;;;;12.50;87.26;101675.66;2090213;28;20003;-68
2021/09/08 03:49:59;;;;;;;;;;;;;;;12.51;87.10;101671.25;2090492;28;19913;-67
2021/09/08 03:50:59;;;;;;;;;;;;;;;12.49;86.30;101671.34;2091043;28;19920;-67
2021/09/08 03:51:59;;;;;;;;;;;;;;;12.48;86.59;101665.25;2090946;28;19919;-67
2021/09/08 03:53:00;;;;;;;;;;;;;;;12.49;87.03;101663.47;2090910;28;19913;-67
2021/09/08 03:54:00;;;;;;;;;;;;;;;12.50;86.61;101662.56;2090938;28;19912;-68
2021/09/08 03:55:00;;;;;;;;;;;;;;;12.51;86.59;101661.66;2091020;28;19952;-67
2021/09/08 03:56:00;;;;;;;;;;;;;;;12.51;86.57;101661.66;2090905;28;19982;-67
2021/09/08 03:57:00;;;;;;;;;;;;;;;12.52;87.26;101663.34;2090861;28;19908;-67
2021/09/08 03:58:00;;;;;;;;;;;;;;;12.51;86.82;101661.66;2090869;28;19935;-66
2021/09/08 03:59:01;;;;;;;;;;;;;;;12.50;87.38;101665.19;2090796;28;19923;-67
2021/09/08 04:00:01;;;;;;;;;;;;;;;12.49;87.11;101661.69;2090902;28;20384;-67
2021/09/08 04:01:01;;;;;;;;;;;;;;;12.48;87.40;101662.63;2090916;28;20520;-68
2021/09/08 04:02:01;;;;;;;;;;;;;;;12.48;87.45;101661.75;2090890;28;19913;-67
2021/09/08 04:03:02;;;;;;;;;;;;;;;12.48;87.83;101659.13;2090213;28;20353;-67
2021/09/08 04:04:02;;;;;;;;;;;;;;;12.46;88.02;101655.75;2090307;28;19912;-66
2021/09/08 04:05:03;;;;;;;;;;;;;;;12.45;88.08;101657.50;2091029;28;19912;-68
2021/09/08 04:06:03;;;;;;;;;;;;;;;12.43;88.02;101659.31;2090862;28;19917;-68
2021/09/08 04:07:03;;;;;;;;;;;;;;;12.42;87.49;101651.53;2090867;28;19962;-68
2021/09/08 04:08:03;;;;;;;;;;;;;;;12.41;88.02;101655.03;2090874;28;19955;-67
2021/09/08 04:09:03;;;;;;;;;;;;;;;12.40;88.41;101653.34;2090772;28;20377;-68
2021/09/08 04:10:04;;;;;;;;;;;;;;;12.39;88.22;101652.50;2090818;28;19913;-67
2021/09/08 04:11:04;;;;;;;;;;;;;;;12.39;87.82;101652.50;2090710;28;19940;-68
2021/09/08 04:12:04;;;;;;;;;;;;;;;12.39;87.99;101656.88;2090788;28;20358;-67
2021/09/08 04:13:04;;;;;;;;;;;;;;;12.38;88.73;101657.78;2090712;28;19908;-67
2021/09/08 04:14:05;;;;;;;;;;;;;;;12.36;88.38;101653.44;2090792;28;19916;-67
2021/09/08 04:15:05;;;;;;;;;;;;;;;12.36;88.75;101650.81;2090878;28;19909;-68
2021/09/08 04:16:05;;;;;;;;;;;;;;;12.34;89.24;101655.28;2081916;28;19932;-67
2021/09/08 04:17:05;;;;;;;;;;;;;;;12.35;89.00;101649.13;2081852;28;19916;-67
2021/09/08 04:18:06;;;;;;;;;;;;;;;12.33;89.05;101643.13;2090010;28;19956;-67
2021/09/08 04:19:06;;;;;;;;;;;;;;;12.33;89.54;101650.09;2090164;28;19909;-67
2021/09/08 04:20:08;;;;;;;;;;;;;;;12.31;88.99;101642.31;2090923;28;19913;-68
2021/09/08 04:21:08;;;;;;;;;;;;;;;12.30;89.61;101647.59;2090767;28;20019;-66
2021/09/08 04:22:08;;;;;;;;;;;;;;;12.29;89.24;101646.75;2090063;28;19958;-68
2021/09/08 04:23:08;;;;;;;;;;;;;;;12.28;88.87;101646.81;2090110;28;20001;-67
2021/09/08 04:24:09;;;;;;;;;;;;;;;12.29;89.41;101646.75;2090784;28;19915;-67
2021/09/08 04:25:09;;;;;;;;;;;;;;;12.30;88.93;101645.84;2090708;28;19908;-67
2021/09/08 04:26:09;;;;;;;;;;;;;;;12.31;89.38;101650.16;2090723;28;19916;-67
2021/09/08 04:27:11;;;;;;;;;;;;;;;12.33;89.24;101648.34;2090629;28;19940;-66
2021/09/08 04:28:11;;;;;;;;;;;;;;;12.33;88.84;101645.72;2090732;28;19908;-66
2021/09/08 04:29:11;;;;;;;;;;;;;;;12.32;89.25;101641.38;2090552;28;20286;-66
2021/09/08 04:30:11;;;;;;;;;;;;;;;12.30;88.66;101643.22;2090653;28;20389;-66
2021/09/08 04:31:12;;;;;;;;;;;;;;;12.32;88.61;101651.03;2090690;28;20431;-66
2021/09/08 04:32:12;;;;;;;;;;;;;;;12.31;88.38;101650.16;2090683;28;20309;-67
2021/09/08 04:33:12;;;;;;;;;;;;;;;12.32;88.56;101654.47;2090642;28;19919;-67
2021/09/08 04:34:12;;;;;;;;;;;;;;;12.30;88.33;101643.22;2090623;28;19962;-67
2021/09/08 04:35:12;;;;;;;;;;;;;;;12.28;88.23;101645.03;2090633;28;19935;-67
2021/09/08 04:36:12;;;;;;;;;;;;;;;12.28;88.76;101642.41;2090699;28;20381;-67
2021/09/08 04:37:13;;;;;;;;;;;;;;;12.27;88.48;101643.31;2090757;28;19909;-68
2021/09/08 04:38:13;;;;;;;;;;;;;;;12.27;88.60;101648.56;2090697;28;19908;-67
2021/09/08 04:39:13;;;;;;;;;;;;;;;12.25;88.30;101645.13;2090665;28;19909;-67
2021/09/08 04:40:13;;;;;;;;;;;;;;;12.25;88.83;101650.38;2090593;28;19952;-67
2021/09/08 04:41:13;;;;;;;;;;;;;;;12.22;88.27;101645.28;2090699;28;19909;-67
2021/09/08 04:42:14;;;;;;;;;;;;;;;12.20;88.32;101652.31;2090609;28;20386;-66
2021/09/08 04:43:14;;;;;;;;;;;;;;;12.19;88.88;101645.38;2090572;28;19909;-67
2021/09/08 04:44:14;;;;;;;;;;;;;;;12.17;87.83;101636.72;2081693;28;19916;-66
2021/09/08 04:45:14;;;;;;;;;;;;;;;12.16;88.48;101633.25;2081870;28;20432;-67
2021/09/08 04:46:14;;;;;;;;;;;;;;;12.16;88.24;101645.47;2089966;28;19959;-67
2021/09/08 04:47:15;;;;;;;;;;;;;;;12.16;88.12;101645.47;2090025;28;19962;-68
2021/09/08 04:48:15;;;;;;;;;;;;;;;12.15;88.55;101649.00;2090546;28;19974;-66
2021/09/08 04:49:15;;;;;;;;;;;;;;;12.16;87.95;101648.09;2090429;28;20335;-67
2021/09/08 04:50:16;;;;;;;;;;;;;;;12.15;88.11;101646.41;2090040;28;19970;-66
2021/09/08 04:51:16;;;;;;;;;;;;;;;12.15;88.17;101649.00;2089967;28;19932;-67
2021/09/08 04:52:16;;;;;;;;;;;;;;;12.15;88.11;101652.47;2090551;28;19959;-66
2021/09/08 04:53:17;;;;;;;;;;;;;;;12.14;88.39;101648.16;2081675;28;19998;-67
2021/09/08 04:54:17;;;;;;;;;;;;;;;12.14;87.98;101647.31;2081694;28;19909;-67
2021/09/08 04:55:17;;;;;;;;;;;;;;;12.13;87.66;101640.34;2090387;28;19909;-67
2021/09/08 04:56:17;;;;;;;;;;;;;;;12.12;87.90;101643.88;2089147;28;19955;-67
2021/09/08 04:57:17;;;;;;;;;;;;;;;12.09;88.41;101650.94;2089994;28;19915;-67
2021/09/08 04:58:17;;;;;;;;;;;;;;;12.07;87.90;101639.69;2081592;28;20363;-66
2021/09/08 04:59:18;;;;;;;;;;;;;;;12.08;87.90;101638.75;2081619;28;20004;-67
2021/09/08 05:00:18;;;;;;;;;;;;;;;12.06;88.16;101639.72;2089835;28;19915;-67
2021/09/08 05:01:18;;;;;;;;;;;;;;;12.06;88.53;101639.72;2081648;28;19915;-67
2021/09/08 05:02:18;;;;;;;;;;;;;;;12.06;88.29;101639.72;2073556;28;19909;-66
2021/09/08 05:03:18;;;;;;;;;;;;;;;12.05;87.88;101638.00;2081729;28;19909;-66
2021/09/08 05:04:19;;;;;;;;;;;;;;;12.06;88.40;101643.22;2081529;28;19909;-66
2021/09/08 05:05:19;;;;;;;;;;;;;;;12.04;88.57;101637.13;2081734;28;20240;-66
2021/09/08 05:06:19;;;;;;;;;;;;;;;12.04;87.73;101637.13;2089729;28;19955;-66
2021/09/08 05:07:19;;;;;;;;;;;;;;;12.06;88.03;101645.81;2089952;28;19930;-67
2021/09/08 05:08:19;;;;;;;;;;;;;;;12.06;88.13;101639.72;2090551;28;19952;-66
2021/09/08 05:09:20;;;;;;;;;;;;;;;12.09;87.58;101640.50;2090430;28;20366;-66